Time;durP1;ratioP1;P1;durP2;ratioP2;P2;SDS_P1;SDS_P2;PMS_P1;PMS_P2;Temp;Humidity;BMP_temperature;BMP_pressure;BME280_temperature;BME280_humidity;BME280_pressure;Samples;Min_cycle;Max_cycle;Signal;HPM_P1;HPM_P2
2022/10/29 00:01:44;;;;;;;6.00;1.88;;;12.90;99.90;;;;;;4987252;28;20034;-36
2022/10/29 00:04:10;;;;;;;10.35;1.75;;;12.90;99.90;;;;;;4989822;28;20125;-37
2022/10/29 00:06:36;;;;;;;8.45;1.65;;;12.90;99.90;;;;;;4988978;28;20401;-36
2022/10/29 00:09:03;;;;;;;7.72;1.83;;;12.90;99.90;;;;;;4989356;28;20043;-36
2022/10/29 00:11:29;;;;;;;6.45;1.60;;;12.90;99.90;;;;;;4985209;28;20061;-37
2022/10/29 00:13:58;;;;;;;8.75;1.85;;;12.90;99.90;;;;;;4987094;28;20038;-37
2022/10/29 00:16:29;;;;;;;8.35;2.40;;;12.90;99.90;;;;;;4987529;28;20065;-37
2022/10/29 00:18:56;;;;;;;6.82;2.35;;;12.80;99.90;;;;;;4989358;28;20559;-37
2022/10/29 00:21:24;;;;;;;7.70;1.92;;;12.90;99.90;;;;;;4982886;28;20441;-36
2022/10/29 00:23:50;;;;;;;10.48;2.03;;;12.80;99.90;;;;;;4987453;28;20081;-37
2022/10/29 00:26:17;;;;;;;7.50;2.20;;;12.80;99.90;;;;;;4985045;28;20049;-36
2022/10/29 00:28:43;;;;;;;7.63;2.47;;;12.70;99.90;;;;;;4985865;28;20046;-36
2022/10/29 00:31:11;;;;;;;6.25;1.90;;;12.70;99.90;;;;;;4986484;28;20042;-37
2022/10/29 00:33:37;;;;;;;6.60;1.70;;;12.60;99.90;;;;;;4987848;28;20530;-36
2022/10/29 00:36:05;;;;;;;6.38;1.75;;;12.60;99.90;;;;;;4987720;28;20767;-36
2022/10/29 00:38:32;;;;;;;9.02;2.55;;;12.60;99.90;;;;;;4988823;28;20084;-37
2022/10/29 00:40:58;;;;;;;9.30;2.72;;;12.60;99.90;;;;;;4988281;28;20553;-36
2022/10/29 00:43:25;;;;;;;10.32;2.22;;;12.50;99.90;;;;;;4988346;28;20034;-36
2022/10/29 00:46:28;;;;;;;10.80;2.40;;;12.50;99.90;;;;;;4983949;28;20111;-36
2022/10/29 00:48:57;;;;;;;8.18;1.83;;;12.50;99.90;;;;;;4984964;28;20054;-38
2022/10/29 00:51:24;;;;;;;14.68;2.20;;;12.50;99.90;;;;;;4985404;28;20100;-36
2022/10/29 00:53:56;;;;;;;8.48;2.33;;;12.50;99.90;;;;;;4988208;28;20169;-36
2022/10/29 00:56:24;;;;;;;8.68;1.75;;;12.40;99.90;;;;;;4983667;28;20046;-37
2022/10/29 00:58:50;;;;;;;6.25;1.70;;;12.40;99.90;;;;;;4986105;28;20038;-35
2022/10/29 01:01:16;;;;;;;7.90;1.80;;;12.40;99.90;;;;;;4983508;28;20312;-42
2022/10/29 01:03:42;;;;;;;7.30;2.30;;;12.40;99.90;;;;;;4988613;28;20392;-36
2022/10/29 01:06:08;;;;;;;8.85;1.90;;;12.30;99.90;;;;;;4981550;28;20756;-36
2022/10/29 01:08:33;;;;;;;8.63;2.17;;;12.30;99.90;;;;;;4988342;28;20071;-37
2022/10/29 01:11:08;;;;;;;5.25;2.20;;;12.30;99.90;;;;;;4988222;28;20049;-37
2022/10/29 01:13:58;;;;;;;18.67;2.50;;;12.30;99.90;;;;;;4984994;28;20073;-37
2022/10/29 01:16:36;;;;;;;11.90;2.38;;;12.30;99.90;;;;;;4985259;28;20050;-37
2022/10/29 01:19:38;;;;;;;8.57;2.53;;;12.30;99.90;;;;;;4983753;28;20038;-36
2022/10/29 01:22:13;;;;;;;5.38;2.03;;;12.30;99.90;;;;;;4988710;28;20046;-37
2022/10/29 01:24:49;;;;;;;19.45;3.78;;;12.30;99.90;;;;;;4985852;28;20660;-36
2022/10/29 01:27:38;;;;;;;12.90;3.65;;;12.20;99.90;;;;;;4983314;28;20042;-36
2022/10/29 01:30:07;;;;;;;8.10;3.63;;;12.20;99.90;;;;;;4986291;28;20081;-36
2022/10/29 01:33:10;;;;;;;12.48;4.10;;;12.20;99.90;;;;;;4986681;28;20043;-37
2022/10/29 01:35:54;;;;;;;10.48;2.90;;;12.10;99.90;;;;;;4934173;28;20510;-36
2022/10/29 01:38:23;;;;;;;8.75;4.03;;;12.10;99.90;;;;;;4987463;28;20093;-36
2022/10/29 01:40:58;;;;;;;15.93;3.90;;;12.10;99.90;;;;;;4985864;28;20112;-36
2022/10/29 01:43:35;;;;;;;12.65;3.90;;;12.10;99.90;;;;;;4984460;28;20505;-38
2022/10/29 01:46:08;;;;;;;10.20;3.03;;;12.10;99.90;;;;;;4984838;28;20035;-38
2022/10/29 01:48:38;;;;;;;9.65;3.30;;;12.10;99.90;;;;;;4986104;28;20085;-37
2022/10/29 01:51:10;;;;;;;12.98;3.65;;;12.10;99.90;;;;;;4987094;28;20403;-36
2022/10/29 01:53:36;;;;;;;10.47;3.60;;;12.10;99.90;;;;;;4983295;28;20046;-41
2022/10/29 01:56:02;;;;;;;11.38;3.55;;;12.10;99.90;;;;;;4985325;28;20320;-37
2022/10/29 01:58:29;;;;;;;10.18;3.20;;;12.10;99.90;;;;;;4986816;28;20157;-36
2022/10/29 02:00:57;;;;;;;7.97;3.25;;;12.10;99.90;;;;;;4983780;28;20747;-37
2022/10/29 02:03:47;;;;;;;9.18;2.88;;;12.10;99.90;;;;;;4985885;28;20104;-36
2022/10/29 02:06:15;;;;;;;9.63;2.40;;;12.10;99.90;;;;;;4985664;28;20615;-37
2022/10/29 02:09:03;;;;;;;9.73;3.63;;;12.10;99.90;;;;;;4979768;28;20499;-36
2022/10/29 02:12:01;;;;;;;10.05;3.88;;;12.10;99.90;;;;;;4987695;28;20088;-37
2022/10/29 02:14:35;;;;;;;11.18;3.42;;;12.10;99.90;;;;;;4943797;28;20042;-36
2022/10/29 02:17:01;;;;;;;9.38;3.30;;;12.10;99.90;;;;;;4982313;28;20116;-39
2022/10/29 02:19:31;;;;;;;9.45;2.95;;;12.10;99.90;;;;;;4982488;28;21611;-39
2022/10/29 02:21:57;;;;;;;10.57;2.95;;;12.10;99.90;;;;;;4987877;28;20049;-38
2022/10/29 02:24:23;;;;;;;9.38;4.07;;;12.10;99.90;;;;;;4985404;28;20653;-36
2022/10/29 02:26:50;;;;;;;7.90;2.80;;;12.10;99.90;;;;;;4979596;28;20093;-36
2022/10/29 02:29:15;;;;;;;10.38;3.63;;;12.10;99.90;;;;;;4984156;28;20038;-37
2022/10/29 02:31:41;;;;;;;9.68;3.35;;;12.00;99.90;;;;;;4987350;28;20034;-35
2022/10/29 02:34:07;;;;;;;14.90;3.50;;;12.00;99.90;;;;;;4989798;28;20038;-36
2022/10/29 02:36:32;;;;;;;10.25;3.33;;;12.00;99.90;;;;;;4987300;28;20117;-38
2022/10/29 02:38:58;;;;;;;7.20;2.75;;;12.00;99.90;;;;;;4988764;28;20049;-39
2022/10/29 02:41:24;;;;;;;11.15;2.40;;;12.00;99.90;;;;;;4991045;28;20081;-38
2022/10/29 02:43:49;;;;;;;6.70;2.58;;;12.00;99.90;;;;;;4990478;28;20061;-36
2022/10/29 02:46:18;;;;;;;8.15;2.22;;;12.00;99.90;;;;;;4987224;28;20971;-36
2022/10/29 02:48:43;;;;;;;9.88;3.22;;;12.00;99.90;;;;;;4985557;28;20042;-36
2022/10/29 02:51:09;;;;;;;5.47;1.88;;;12.00;99.90;;;;;;4989442;28;20054;-38
2022/10/29 02:53:35;;;;;;;6.25;2.42;;;11.90;99.90;;;;;;4990566;28;20403;-35
2022/10/29 02:56:01;;;;;;;7.30;2.70;;;11.90;99.90;;;;;;4988872;28;20030;-45
2022/10/29 02:58:27;;;;;;;9.70;2.60;;;11.90;99.90;;;;;;4987750;28;20057;-36
2022/10/29 03:00:53;;;;;;;15.32;3.30;;;11.90;99.90;;;;;;4984018;28;20030;-36
2022/10/29 03:03:19;;;;;;;8.20;2.47;;;11.80;99.90;;;;;;4990329;28;20121;-36
2022/10/29 03:05:44;;;;;;;9.32;2.50;;;11.90;99.90;;;;;;4989050;28;20034;-37
2022/10/29 03:08:10;;;;;;;7.78;2.05;;;11.80;99.90;;;;;;4986937;28;20126;-38
2022/10/29 03:10:36;;;;;;;6.00;2.20;;;11.80;99.90;;;;;;4988494;28;20500;-38
2022/10/29 03:13:01;;;;;;;7.10;2.05;;;11.80;99.90;;;;;;4983331;28;20042;-37
2022/10/29 03:15:27;;;;;;;7.75;2.17;;;11.80;99.90;;;;;;4986607;28;20038;-37
2022/10/29 03:17:53;;;;;;;8.32;2.33;;;11.80;99.90;;;;;;4988176;28;20109;-37
2022/10/29 03:20:19;;;;;;;14.95;2.78;;;11.80;99.90;;;;;;4986983;28;20082;-36
2022/10/29 03:22:44;;;;;;;8.77;2.50;;;11.80;99.90;;;;;;4985514;28;20042;-36
2022/10/29 03:25:10;;;;;;;11.35;2.67;;;11.70;99.90;;;;;;4984289;28;20026;-36
2022/10/29 03:27:43;;;;;;;7.30;2.15;;;11.70;99.90;;;;;;4985200;28;20038;-36
2022/10/29 03:30:11;;;;;;;10.93;2.80;;;11.70;99.90;;;;;;4987475;28;20053;-36
2022/10/29 03:32:40;;;;;;;10.05;2.70;;;11.70;99.90;;;;;;4984180;28;20042;-39
2022/10/29 03:35:07;;;;;;;23.58;4.47;;;11.70;99.90;;;;;;4987262;28;20038;-36
2022/10/29 03:37:33;;;;;;;22.48;3.80;;;11.70;99.90;;;;;;4988403;28;20030;-37
2022/10/29 03:39:58;;;;;;;29.13;4.45;;;11.70;99.90;;;;;;4989425;28;20420;-36
2022/10/29 03:42:24;;;;;;;16.00;3.83;;;11.80;99.90;;;;;;4984667;28;20504;-36
2022/10/29 03:44:50;;;;;;;22.38;3.42;;;11.80;99.90;;;;;;4987222;28;20038;-37
2022/10/29 03:47:15;;;;;;;30.17;3.85;;;11.80;99.90;;;;;;4983810;28;20130;-36
2022/10/29 03:49:41;;;;;;;24.40;3.38;;;11.80;99.90;;;;;;4990160;28;20026;-37
2022/10/29 03:52:08;;;;;;;62.20;4.40;;;11.80;99.90;;;;;;4983310;28;21228;-38
2022/10/29 03:54:33;;;;;;;60.92;4.43;;;11.90;99.90;;;;;;4983056;28;20054;-36
2022/10/29 03:56:59;;;;;;;60.72;5.20;;;11.90;99.90;;;;;;4981473;28;20122;-36
2022/10/29 03:59:24;;;;;;;47.05;4.53;;;11.90;99.90;;;;;;4989394;28;20136;-36
2022/10/29 04:01:50;;;;;;;47.50;5.30;;;11.90;99.90;;;;;;4985281;28;20046;-36
2022/10/29 04:04:16;;;;;;;39.17;4.32;;;11.90;99.90;;;;;;4988429;28;20048;-36
2022/10/29 04:06:41;;;;;;;32.38;4.05;;;11.90;99.90;;;;;;4986945;28;20062;-36
2022/10/29 04:09:07;;;;;;;40.45;4.03;;;11.90;99.90;;;;;;4984133;28;20039;-37
2022/10/29 04:11:33;;;;;;;22.58;3.50;;;11.90;99.90;;;;;;4985146;28;20417;-36
2022/10/29 04:13:58;;;;;;;14.27;3.42;;;11.90;99.90;;;;;;4987817;28;20042;-36
2022/10/29 04:16:24;;;;;;;25.75;3.78;;;11.90;99.90;;;;;;4988181;28;20042;-36
2022/10/29 04:18:50;;;;;;;25.30;4.03;;;11.80;99.90;;;;;;4988160;28;20038;-36
2022/10/29 04:21:16;;;;;;;24.65;3.53;;;11.80;99.90;;;;;;4988370;28;20050;-39
2022/10/29 04:23:43;;;;;;;17.27;3.75;;;11.80;99.90;;;;;;4983388;28;20081;-36
2022/10/29 04:26:09;;;;;;;27.08;3.78;;;11.80;99.90;;;;;;4986284;28;20031;-36
2022/10/29 04:28:35;;;;;;;43.63;6.25;;;11.80;99.90;;;;;;4984207;28;20126;-37
2022/10/29 04:31:10;;;;;;;23.15;4.18;;;11.80;99.90;;;;;;4987106;28;20121;-36
2022/10/29 04:33:36;;;;;;;36.10;4.80;;;11.80;99.90;;;;;;4984152;28;20046;-36
2022/10/29 04:36:02;;;;;;;28.00;5.15;;;11.80;99.90;;;;;;4988815;28;20510;-36
2022/10/29 04:38:28;;;;;;;24.33;3.97;;;11.80;99.90;;;;;;4990549;28;20108;-36
2022/10/29 04:40:57;;;;;;;11.10;3.38;;;11.80;99.90;;;;;;4989383;28;20046;-38
2022/10/29 04:43:23;;;;;;;18.27;4.07;;;11.80;99.90;;;;;;4984450;28;20125;-36
2022/10/29 04:45:53;;;;;;;16.52;4.20;;;11.80;99.90;;;;;;4983997;28;20178;-36
2022/10/29 04:48:18;;;;;;;18.23;4.10;;;11.80;99.90;;;;;;4987237;28;20093;-36
2022/10/29 04:50:44;;;;;;;25.42;5.43;;;11.80;99.90;;;;;;4987042;28;20041;-36
2022/10/29 04:53:10;;;;;;;13.55;4.00;;;11.80;99.90;;;;;;4985434;28;20058;-44
2022/10/29 04:55:37;;;;;;;12.90;4.05;;;11.80;99.90;;;;;;4984326;28;20536;-37
2022/10/29 04:58:10;;;;;;;19.15;5.45;;;11.80;99.90;;;;;;4984204;28;20035;-36
2022/10/29 05:00:36;;;;;;;10.15;4.28;;;11.80;99.90;;;;;;4984131;28;20073;-36
2022/10/29 05:03:02;;;;;;;9.52;4.40;;;11.90;99.90;;;;;;4985350;28;20038;-36
2022/10/29 05:05:28;;;;;;;13.30;5.10;;;11.90;99.90;;;;;;4987281;28;20484;-36
2022/10/29 05:08:01;;;;;;;13.30;4.55;;;11.90;99.90;;;;;;4983401;28;20162;-37
2022/10/29 05:10:32;;;;;;;12.05;4.68;;;12.00;99.90;;;;;;4987121;28;20470;-36
2022/10/29 05:13:00;;;;;;;22.73;5.93;;;12.00;99.90;;;;;;4979782;28;20035;-36
2022/10/29 05:15:26;;;;;;;9.15;4.20;;;12.00;99.90;;;;;;4983819;28;20041;-36
2022/10/29 05:17:52;;;;;;;12.70;5.18;;;12.10;99.90;;;;;;4983994;28;20039;-36
2022/10/29 05:20:18;;;;;;;12.75;4.65;;;12.10;99.90;;;;;;4982192;28;20504;-36
2022/10/29 05:22:44;;;;;;;11.32;5.10;;;12.10;99.90;;;;;;4985357;28;20047;-35
2022/10/29 05:25:09;;;;;;;11.63;5.45;;;12.10;99.90;;;;;;4980326;28;20035;-36
2022/10/29 05:27:35;;;;;;;10.02;5.03;;;12.10;99.90;;;;;;4987561;28;20041;-36
2022/10/29 05:30:01;;;;;;;14.82;5.80;;;12.20;99.90;;;;;;4985566;28;20044;-38
2022/10/29 05:32:29;;;;;;;13.65;5.97;;;12.20;99.90;;;;;;4985381;28;20051;-36
2022/10/29 05:34:55;;;;;;;12.52;6.55;;;12.20;99.90;;;;;;4981578;28;20038;-36
2022/10/29 05:37:24;;;;;;;11.93;5.47;;;12.20;99.90;;;;;;4983295;28;20053;-37
2022/10/29 05:39:50;;;;;;;14.73;6.07;;;12.20;99.90;;;;;;4985534;28;20042;-38
2022/10/29 05:42:16;;;;;;;9.00;4.90;;;12.30;99.90;;;;;;4983344;28;20050;-38
2022/10/29 05:44:41;;;;;;;11.23;5.72;;;12.30;99.90;;;;;;4981570;28;20042;-35
2022/10/29 05:47:07;;;;;;;14.05;5.45;;;12.30;99.90;;;;;;4985513;28;20045;-35
2022/10/29 05:49:33;;;;;;;10.75;6.00;;;12.30;99.90;;;;;;4982406;28;20038;-36
2022/10/29 05:51:58;;;;;;;16.60;6.30;;;12.30;99.90;;;;;;4987208;28;20455;-37
2022/10/29 05:54:24;;;;;;;14.43;6.13;;;12.30;99.90;;;;;;4984619;28;20046;-37
2022/10/29 05:56:49;;;;;;;16.60;5.90;;;12.30;99.90;;;;;;4975758;28;20173;-36
2022/10/29 05:59:15;;;;;;;13.65;6.05;;;12.30;99.90;;;;;;4985759;28;20209;-37
2022/10/29 06:01:41;;;;;;;12.38;5.68;;;12.40;99.90;;;;;;4984239;28;20043;-36
2022/10/29 06:04:06;;;;;;;12.93;5.22;;;12.40;99.90;;;;;;4984380;28;20041;-36
2022/10/29 06:06:32;;;;;;;13.70;5.68;;;12.30;99.90;;;;;;4981889;28;20042;-37
2022/10/29 06:08:58;;;;;;;9.73;5.05;;;12.40;99.90;;;;;;4986709;28;20507;-35
2022/10/29 06:11:24;;;;;;;16.52;7.35;;;12.40;99.90;;;;;;4991041;28;20121;-36
2022/10/29 06:13:54;;;;;;;15.90;5.85;;;12.30;99.90;;;;;;4982503;28;21719;-38
2022/10/29 06:16:21;;;;;;;17.27;6.72;;;12.30;99.90;;;;;;4989911;28;20046;-38
2022/10/29 06:18:47;;;;;;;14.63;7.07;;;12.30;99.90;;;;;;4986654;28;20045;-36
2022/10/29 06:21:12;;;;;;;16.00;7.45;;;12.30;99.90;;;;;;4991209;28;20070;-37
2022/10/29 06:23:38;;;;;;;17.92;6.82;;;12.30;99.90;;;;;;4988794;28;20077;-36
2022/10/29 06:26:04;;;;;;;19.30;7.97;;;12.30;99.90;;;;;;4988974;28;20035;-36
2022/10/29 06:28:30;;;;;;;14.45;6.70;;;12.30;99.90;;;;;;4986461;28;20488;-36
2022/10/29 06:30:56;;;;;;;14.00;6.78;;;12.30;99.90;;;;;;4989073;28;20035;-37
2022/10/29 06:33:22;;;;;;;16.42;8.32;;;12.30;99.90;;;;;;4982726;28;20042;-37
2022/10/29 06:35:47;;;;;;;16.77;7.88;;;12.30;99.90;;;;;;4989860;28;20034;-36
2022/10/29 06:38:13;;;;;;;14.15;7.18;;;12.30;99.90;;;;;;4989184;28;20050;-35
2022/10/29 06:40:40;;;;;;;15.80;7.70;;;12.30;99.90;;;;;;4990510;28;20088;-36
2022/10/29 06:43:10;;;;;;;21.50;8.57;;;12.30;99.90;;;;;;4987042;28;20047;-37
2022/10/29 06:45:35;;;;;;;14.27;7.22;;;12.30;99.90;;;;;;4987770;28;20090;-36
2022/10/29 06:48:03;;;;;;;13.32;5.90;;;12.30;99.90;;;;;;4986530;28;20077;-38
2022/10/29 06:50:30;;;;;;;16.75;7.45;;;12.30;99.90;;;;;;4990166;28;20049;-36
2022/10/29 06:53:01;;;;;;;17.85;7.35;;;12.40;99.90;;;;;;4987710;28;20045;-38
2022/10/29 06:55:27;;;;;;;17.98;7.88;;;12.40;99.90;;;;;;4989475;28;20042;-43
2022/10/29 06:57:56;;;;;;;15.48;7.25;;;12.40;99.90;;;;;;4985457;28;20046;-36
2022/10/29 07:00:22;;;;;;;11.57;5.97;;;12.50;99.90;;;;;;4984245;28;20123;-37
2022/10/29 07:02:48;;;;;;;12.50;6.45;;;12.50;99.90;;;;;;4989964;28;20034;-36
2022/10/29 07:05:14;;;;;;;14.90;7.05;;;12.50;99.90;;;;;;4984143;28;20034;-36
2022/10/29 07:07:39;;;;;;;16.58;6.85;;;12.50;99.90;;;;;;4988065;28;20053;-37
2022/10/29 07:10:05;;;;;;;12.40;6.75;;;12.60;99.90;;;;;;4984476;28;20042;-37
2022/10/29 07:12:31;;;;;;;13.18;6.07;;;12.60;99.90;;;;;;4987568;28;20045;-37
2022/10/29 07:14:56;;;;;;;13.57;6.70;;;12.60;99.90;;;;;;4986787;28;20093;-37
2022/10/29 07:17:22;;;;;;;11.40;6.60;;;12.70;99.90;;;;;;4986136;28;20046;-38
2022/10/29 07:19:48;;;;;;;13.88;5.85;;;12.70;99.90;;;;;;4986680;28;20428;-37
2022/10/29 07:22:13;;;;;;;13.57;6.72;;;12.70;99.90;;;;;;4985054;28;20039;-36
2022/10/29 07:24:39;;;;;;;13.70;6.38;;;12.80;99.90;;;;;;4988409;28;20058;-36
2022/10/29 07:27:06;;;;;;;20.25;8.23;;;12.80;99.90;;;;;;4983205;28;20038;-38
2022/10/29 07:29:31;;;;;;;18.65;8.15;;;12.80;99.90;;;;;;4986428;28;20034;-38
2022/10/29 07:31:57;;;;;;;14.25;7.28;;;12.80;99.90;;;;;;4988895;28;20084;-37
2022/10/29 07:34:22;;;;;;;24.35;9.10;;;12.90;99.90;;;;;;4985627;28;20128;-38
2022/10/29 07:36:48;;;;;;;18.33;8.10;;;12.90;99.90;;;;;;4984405;28;20038;-37
2022/10/29 07:39:14;;;;;;;14.18;8.07;;;12.90;99.90;;;;;;4984134;28;20038;-37
2022/10/29 07:41:39;;;;;;;15.77;8.23;;;12.90;99.90;;;;;;4985043;28;20038;-37
2022/10/29 07:44:05;;;;;;;15.43;7.13;;;13.00;99.90;;;;;;4982573;28;20046;-38
2022/10/29 07:46:31;;;;;;;15.57;7.35;;;13.00;99.90;;;;;;4984741;28;20595;-36
2022/10/29 07:48:56;;;;;;;15.55;8.32;;;13.00;99.90;;;;;;4982374;28;20058;-37
2022/10/29 07:51:22;;;;;;;19.63;8.93;;;13.10;99.90;;;;;;4984948;28;20120;-37
2022/10/29 07:53:48;;;;;;;19.02;8.63;;;13.10;99.90;;;;;;4985847;28;20030;-37
2022/10/29 07:56:13;;;;;;;19.48;9.65;;;13.10;99.90;;;;;;4986472;28;20066;-37
2022/10/29 07:58:39;;;;;;;16.80;9.55;;;13.20;99.90;;;;;;4987880;28;20540;-36
2022/10/29 08:01:05;;;;;;;17.25;8.60;;;13.20;99.90;;;;;;4983449;28;20084;-37
2022/10/29 08:03:30;;;;;;;19.33;9.45;;;13.20;99.90;;;;;;4986744;28;20026;-37
2022/10/29 08:05:56;;;;;;;15.73;8.02;;;13.30;99.90;;;;;;4979564;28;20046;-38
2022/10/29 08:08:22;;;;;;;20.35;9.15;;;13.30;99.90;;;;;;4983927;28;20451;-37
2022/10/29 08:10:48;;;;;;;18.17;9.48;;;13.30;99.90;;;;;;4984403;28;20483;-40
2022/10/29 08:13:14;;;;;;;17.83;9.40;;;13.30;99.90;;;;;;4983505;28;20038;-36
2022/10/29 08:15:39;;;;;;;21.75;9.98;;;13.40;99.90;;;;;;4982780;28;20046;-37
2022/10/29 08:18:13;;;;;;;22.25;9.40;;;13.40;99.90;;;;;;4983521;28;20030;-38
2022/10/29 08:20:38;;;;;;;23.67;10.27;;;13.40;99.90;;;;;;4982779;28;20038;-37
2022/10/29 08:23:04;;;;;;;22.10;10.13;;;13.40;99.90;;;;;;4988258;28;20039;-36
2022/10/29 08:25:30;;;;;;;20.25;8.70;;;13.50;99.90;;;;;;4985440;28;20073;-37
2022/10/29 08:27:59;;;;;;;26.85;9.65;;;13.50;99.90;;;;;;4982961;28;20027;-37
2022/10/29 08:30:25;;;;;;;22.35;10.80;;;13.60;99.90;;;;;;4983838;28;20065;-37
2022/10/29 08:32:51;;;;;;;26.83;9.43;;;13.60;99.90;;;;;;4988989;28;20042;-37
2022/10/29 08:35:16;;;;;;;19.30;9.90;;;13.70;99.90;;;;;;4983721;28;20042;-39
2022/10/29 08:37:45;;;;;;;23.73;9.93;;;13.70;99.90;;;;;;4980541;28;20128;-38
2022/10/29 08:40:13;;;;;;;18.67;8.85;;;13.80;99.90;;;;;;4984435;28;20140;-37
2022/10/29 08:43:17;;;;;;;19.38;10.15;;;13.90;99.90;;;;;;4985503;28;20121;-39
2022/10/29 08:45:54;;;;;;;20.75;9.70;;;14.00;99.90;;;;;;4980607;28;20065;-37
2022/10/29 08:48:34;;;;;;;24.88;10.05;;;14.10;99.90;;;;;;4983414;28;20046;-38
2022/10/29 08:51:03;;;;;;;22.35;10.75;;;14.20;99.90;;;;;;4985790;28;20042;-37
2022/10/29 08:53:45;;;;;;;18.60;9.57;;;14.30;99.90;;;;;;4986027;28;20042;-37
2022/10/29 08:56:37;;;;;;;21.70;10.40;;;14.40;99.90;;;;;;4986094;28;20129;-45
2022/10/29 08:59:16;;;;;;;22.83;10.27;;;14.40;99.90;;;;;;4976020;28;20058;-37
2022/10/29 09:01:42;;;;;;;21.40;10.88;;;14.50;99.90;;;;;;4985444;28;20096;-37
2022/10/29 09:04:32;;;;;;;22.20;10.23;;;14.60;99.90;;;;;;4987968;28;20038;-38
2022/10/29 09:07:33;;;;;;;20.48;10.32;;;14.70;99.90;;;;;;4986062;28;20084;-37
2022/10/29 09:10:26;;;;;;;22.52;10.90;;;14.80;99.90;;;;;;4978127;28;20043;-37
2022/10/29 09:13:20;;;;;;;20.17;10.70;;;14.90;99.90;;;;;;4986170;28;20048;-37
2022/10/29 09:16:11;;;;;;;19.52;8.52;;;15.00;99.90;;;;;;4986813;28;20045;-37
2022/10/29 09:18:45;;;;;;;20.83;10.27;;;15.00;99.90;;;;;;4986338;28;20062;-37
2022/10/29 09:21:50;;;;;;;21.65;9.07;;;15.20;99.90;;;;;;4988182;28;20512;-37
2022/10/29 09:24:43;;;;;;;18.20;8.98;;;15.30;99.90;;;;;;4986087;28;20508;-37
2022/10/29 09:27:44;;;;;;;19.90;9.43;;;15.30;99.90;;;;;;4981189;28;20034;-37
2022/10/29 09:30:17;;;;;;;18.52;9.05;;;15.40;99.90;;;;;;4976695;28;20500;-38
2022/10/29 09:33:03;;;;;;;18.95;11.15;;;15.50;99.90;;;;;;4980212;28;20094;-38
2022/10/29 09:35:39;;;;;;;23.90;9.38;;;15.50;99.90;;;;;;4980604;28;20042;-36
2022/10/29 09:38:25;;;;;;;20.90;9.70;;;15.50;99.90;;;;;;4983490;28;20038;-37
2022/10/29 09:40:51;;;;;;;19.20;9.70;;;15.60;99.90;;;;;;4989651;28;20392;-37
2022/10/29 09:43:46;;;;;;;19.02;11.13;;;15.60;99.90;;;;;;4990130;28;20045;-37
2022/10/29 09:46:34;;;;;;;17.27;9.98;;;15.60;99.90;;;;;;4990194;28;20124;-36
2022/10/29 09:49:21;;;;;;;19.90;10.60;;;15.70;99.90;;;;;;4985775;28;20483;-37
2022/10/29 09:51:59;;;;;;;21.85;10.35;;;15.80;99.90;;;;;;4990407;28;20046;-37
2022/10/29 09:54:28;;;;;;;22.88;9.88;;;15.90;99.90;;;;;;4988091;28;20042;-37
2022/10/29 09:56:55;;;;;;;20.25;11.40;;;15.90;99.90;;;;;;4992329;28;20061;-37
2022/10/29 09:59:33;;;;;;;20.75;11.25;;;16.00;99.90;;;;;;4989607;28;20050;-42
2022/10/29 10:01:59;;;;;;;20.83;10.65;;;16.10;99.90;;;;;;4986545;28;20050;-37
2022/10/29 10:04:39;;;;;;;20.50;10.70;;;16.20;99.90;;;;;;4987966;28;20052;-37
2022/10/29 10:07:11;;;;;;;19.15;11.35;;;16.20;99.90;;;;;;4985217;28;20048;-37
2022/10/29 10:09:56;;;;;;;19.45;10.18;;;16.30;99.90;;;;;;4987788;28;20034;-37
2022/10/29 10:12:42;;;;;;;22.15;10.68;;;16.40;99.90;;;;;;4986434;28;20133;-37
2022/10/29 10:15:27;;;;;;;21.85;9.43;;;16.50;99.90;;;;;;4979234;28;20760;-39
2022/10/29 10:18:04;;;;;;;19.77;10.32;;;16.60;99.90;;;;;;4982891;28;20069;-37
2022/10/29 10:20:34;;;;;;;23.35;10.75;;;16.70;99.90;;;;;;4985227;28;20507;-38
2022/10/29 10:23:02;;;;;;;17.38;9.55;;;16.90;99.90;;;;;;4980520;28;20536;-38
2022/10/29 10:25:36;;;;;;;20.25;10.60;;;17.00;99.90;;;;;;4985558;28;20054;-37
2022/10/29 10:28:23;;;;;;;15.70;9.48;;;17.10;99.90;;;;;;4980494;28;20030;-38
2022/10/29 10:31:11;;;;;;;18.83;9.68;;;17.30;99.90;;;;;;4986350;28;20476;-37
2022/10/29 10:33:53;;;;;;;21.67;9.20;;;17.30;99.90;;;;;;4990654;28;20041;-37
2022/10/29 10:36:24;;;;;;;15.45;8.50;;;17.40;99.90;;;;;;4985782;28;20043;-37
2022/10/29 10:38:53;;;;;;;16.42;9.38;;;17.40;99.90;;;;;;4984320;28;20034;-38
2022/10/29 10:41:26;;;;;;;22.08;9.45;;;17.40;99.90;;;;;;4979913;28;20097;-37
2022/10/29 10:43:59;;;;;;;19.17;9.32;;;17.40;99.90;;;;;;4988658;28;20038;-37
2022/10/29 10:46:33;;;;;;;16.90;8.65;;;17.40;99.90;;;;;;4988325;28;20058;-36
2022/10/29 10:49:09;;;;;;;15.85;8.25;;;17.40;99.90;;;;;;4992164;28;20512;-37
2022/10/29 10:51:37;;;;;;;19.13;9.05;;;17.40;99.90;;;;;;4988748;28;20042;-37
2022/10/29 10:54:22;;;;;;;20.30;8.85;;;17.40;99.90;;;;;;4989180;28;20042;-37
2022/10/29 10:56:58;;;;;;;17.02;9.32;;;17.50;99.90;;;;;;4992773;28;20565;-37
2022/10/29 10:59:28;;;;;;;19.95;9.20;;;17.50;99.90;;;;;;4987708;28;20077;-37
2022/10/29 11:01:59;;;;;;;17.83;8.50;;;17.60;99.90;;;;;;4992602;28;20579;-38
2022/10/29 11:04:33;;;;;;;19.20;8.55;;;17.60;99.90;;;;;;4988321;28;20045;-37
2022/10/29 11:07:05;;;;;;;13.45;7.68;;;17.70;99.90;;;;;;4989460;28;20439;-37
2022/10/29 11:09:45;;;;;;;17.13;8.70;;;17.80;99.90;;;;;;4987976;28;20070;-38
2022/10/29 11:12:22;;;;;;;16.17;8.73;;;17.80;99.90;;;;;;4990766;28;20053;-38
2022/10/29 11:14:54;;;;;;;16.15;8.13;;;17.90;99.90;;;;;;4991702;28;20161;-37
2022/10/29 11:17:26;;;;;;;20.33;9.10;;;17.90;99.90;;;;;;4990348;28;20407;-38
2022/10/29 11:19:56;;;;;;;19.50;8.73;;;18.00;99.90;;;;;;4988138;28;20625;-37
2022/10/29 11:22:45;;;;;;;18.92;8.65;;;18.00;99.90;;;;;;4991710;28;20062;-37
2022/10/29 11:25:25;;;;;;;17.08;8.13;;;18.10;99.90;;;;;;4988543;28;20054;-37
2022/10/29 11:27:55;;;;;;;18.65;8.30;;;18.30;99.90;;;;;;4984506;28;20057;-38
2022/10/29 11:30:21;;;;;;;18.95;9.35;;;18.40;99.90;;;;;;4987335;28;20037;-38
2022/10/29 11:33:16;;;;;;;16.73;8.63;;;18.40;99.90;;;;;;4992171;28;20042;-37
2022/10/29 11:36:03;;;;;;;14.95;7.72;;;18.50;99.90;;;;;;4986173;28;20046;-37
2022/10/29 11:38:41;;;;;;;22.63;9.13;;;18.50;99.90;;;;;;4990791;28;20408;-37
2022/10/29 11:41:25;;;;;;;15.57;8.18;;;18.60;99.90;;;;;;4984413;28;20130;-37
2022/10/29 11:43:51;;;;;;;15.63;8.07;;;18.70;99.90;;;;;;4986671;28;20173;-37
2022/10/29 11:46:28;;;;;;;15.93;7.88;;;19.10;99.90;;;;;;4988723;28;20444;-37
2022/10/29 11:49:12;;;;;;;17.23;7.75;;;19.90;99.90;;;;;;4983633;28;20395;-38
2022/10/29 11:51:41;;;;;;;15.55;7.60;;;20.60;99.90;;;;;;4985115;28;20046;-37
2022/10/29 11:54:39;;;;;;;13.52;7.15;;;20.90;99.90;;;;;;4984518;28;20038;-37
2022/10/29 11:57:22;;;;;;;16.73;7.80;;;20.80;99.90;;;;;;4953508;28;20054;-39
2022/10/29 11:59:53;;;;;;;17.55;7.43;;;20.70;99.90;;;;;;4988564;28;20534;-39
2022/10/29 12:02:22;;;;;;;13.20;7.37;;;20.60;99.90;;;;;;4981538;28;20043;-37
2022/10/29 12:04:58;;;;;;;14.95;7.20;;;20.40;99.90;;;;;;4983977;28;20069;-37
2022/10/29 12:07:46;;;;;;;12.30;7.60;;;20.30;99.90;;;;;;4985631;28;20050;-37
2022/10/29 12:10:30;;;;;;;13.52;7.35;;;20.10;99.90;;;;;;4990573;28;20100;-37
2022/10/29 12:13:18;;;;;;;16.35;7.43;;;19.90;99.90;;;;;;4985986;28;20042;-37
2022/10/29 12:16:09;;;;;;;14.00;7.18;;;19.70;99.90;;;;;;4989491;28;20065;-39
2022/10/29 12:18:51;;;;;;;18.23;6.88;;;19.60;99.90;;;;;;4986485;28;20034;-41
2022/10/29 12:22:04;;;;;;;14.27;6.65;;;19.50;99.90;;;;;;4986920;28;20163;-38
2022/10/29 12:24:59;;;;;;;11.98;6.80;;;19.50;99.90;;;;;;4984324;28;20090;-37
2022/10/29 12:27:42;;;;;;;18.48;7.05;;;19.50;99.90;;;;;;4987242;28;20042;-38
2022/10/29 12:30:12;;;;;;;15.18;6.60;;;19.50;99.90;;;;;;4989878;28;20078;-37
2022/10/29 12:32:46;;;;;;;15.98;6.47;;;19.50;99.90;;;;;;4986832;28;20049;-38
2022/10/29 12:35:32;;;;;;;15.65;7.20;;;19.60;99.90;;;;;;4982667;28;20440;-40
2022/10/29 12:38:37;;;;;;;15.77;6.55;;;19.60;99.90;;;;;;4985273;28;20062;-38
2022/10/29 12:41:10;;;;;;;15.20;6.72;;;19.60;99.90;;;;;;4987894;28;20042;-38
2022/10/29 12:43:38;;;;;;;14.27;6.85;;;19.70;99.90;;;;;;4987439;28;20046;-39
2022/10/29 12:46:34;;;;;;;19.85;7.20;;;19.70;99.90;;;;;;4984332;28;20059;-40
2022/10/29 12:49:22;;;;;;;16.17;7.05;;;19.80;99.90;;;;;;4981318;28;20530;-39
2022/10/29 12:51:53;;;;;;;15.65;6.80;;;19.70;99.90;;;;;;4983583;28;20074;-38
2022/10/29 12:54:37;;;;;;;15.23;6.63;;;19.60;99.90;;;;;;4988781;28;20042;-40
2022/10/29 12:57:30;;;;;;;12.50;6.95;;;19.50;99.90;;;;;;4987301;28;20049;-39
2022/10/29 12:59:57;;;;;;;17.77;6.72;;;19.50;99.90;;;;;;4984472;28;20041;-43
2022/10/29 13:02:35;;;;;;;13.57;6.82;;;19.40;99.90;;;;;;4985847;28;20084;-37